KPSM/PSM METAR and TAF weather

Enter ICAO airport designator
Station Type Date Time Source
KPSM METAR 2019/02/18 03:56 UTC NOAA

KPSM 180356Z 00000KT 10SM BKN090 OVC110 M03/M08 A3002 RMK AO2A SLP169 T10271076


Station Type Date Time Source
KPSM Decoded METAR 2019/02/18 03:56 UTC NOAA

Pease Air Force Base / Portsmouth, NH, United States (KPSM) 43-05N 070-49W
Feb 17, 2019 - 10:56 PM EST / 2019.02.18 0356 UTC
Wind: Calm:0
Visibility: 10 mile(s):0
Sky conditions: overcast
Temperature: 27.1 F (-2.7 C)
Dew Point: 18.3 F (-7.6 C)
Relative Humidity: 68%
Pressure (altimeter): 30.02 in. Hg (1016 hPa)
ob: KPSM 180356Z 00000KT 10SM BKN090 OVC110 M03/M08 A3002 RMK AO2A SLP169 T10271076
cycle: 4

Station Type Date Time Source
KPSM TAF 2019/02/17 18:22 UTC NOAA

TAF KPSM 171720Z 1718/1818 27004KT P6SM FEW250
FM180500 VRB03KT P6SM OVC060
FM180800 06004KT 4SM -SHSN OVC025
FM181200 04006KT 1 1/2SM -SHSN OVC007


Example: see airport list